sensor_id;sensor_type;location;lat;lon;timestamp;noise_LAeq;noise_LA_min;noise_LA_max;noise_LA01;noise_LA95
66456;Laerm;56833;52.254;5.598;2023-04-25T00:00:01;41.53;40.31;42.46;;
66456;Laerm;56833;52.254;5.598;2023-04-25T00:00:12;41.57;40.56;42.52;;
66456;Laerm;56833;52.254;5.598;2023-04-25T00:00:22;41.50;40.40;42.38;;
66456;Laerm;56833;52.254;5.598;2023-04-25T00:00:32;41.53;40.49;42.47;;
66456;Laerm;56833;52.254;5.598;2023-04-25T00:00:43;41.51;40.47;42.48;;
66456;Laerm;56833;52.254;5.598;2023-04-25T00:00:53;41.52;40.62;42.42;;
66456;Laerm;56833;52.254;5.598;2023-04-25T00:01:03;41.47;40.63;42.45;;
66456;Laerm;56833;52.254;5.598;2023-04-25T00:01:14;41.53;40.48;42.86;;
66456;Laerm;56833;52.254;5.598;2023-04-25T00:01:25;41.56;40.59;42.69;;
66456;Laerm;56833;52.254;5.598;2023-04-25T00:01:35;41.51;40.50;42.39;;
66456;Laerm;56833;52.254;5.598;2023-04-25T00:01:46;41.55;40.59;42.64;;
66456;Laerm;56833;52.254;5.598;2023-04-25T00:01:56;41.50;40.47;42.71;;
66456;Laerm;56833;52.254;5.598;2023-04-25T00:02:07;41.50;40.61;42.42;;
66456;Laerm;56833;52.254;5.598;2023-04-25T00:02:18;41.51;40.25;42.58;;
66456;Laerm;56833;52.254;5.598;2023-04-25T00:02:29;41.52;40.44;42.96;;
66456;Laerm;56833;52.254;5.598;2023-04-25T00:02:41;41.51;40.35;42.66;;
66456;Laerm;56833;52.254;5.598;2023-04-25T00:02:52;41.55;40.45;42.58;;
66456;Laerm;56833;52.254;5.598;2023-04-25T00:03:02;41.52;40.39;42.39;;
66456;Laerm;56833;52.254;5.598;2023-04-25T00:03:13;41.52;40.44;42.40;;
66456;Laerm;56833;52.254;5.598;2023-04-25T00:03:23;41.56;40.44;42.62;;
66456;Laerm;56833;52.254;5.598;2023-04-25T00:03:35;41.53;40.33;42.78;;
66456;Laerm;56833;52.254;5.598;2023-04-25T00:03:45;41.52;40.63;42.46;;
66456;Laerm;56833;52.254;5.598;2023-04-25T00:03:56;41.49;40.55;42.54;;
66456;Laerm;56833;52.254;5.598;2023-04-25T00:04:07;41.50;40.44;42.58;;
66456;Laerm;56833;52.254;5.598;2023-04-25T00:04:17;41.51;40.60;42.63;;
66456;Laerm;56833;52.254;5.598;2023-04-25T00:04:27;41.51;40.34;42.42;;
66456;Laerm;56833;52.254;5.598;2023-04-25T00:04:39;41.51;40.66;42.47;;
66456;Laerm;56833;52.254;5.598;2023-04-25T00:04:49;41.52;40.45;42.72;;
66456;Laerm;56833;52.254;5.598;2023-04-25T00:05:00;41.48;40.58;42.53;;
66456;Laerm;56833;52.254;5.598;2023-04-25T00:05:11;41.48;40.41;42.53;;
66456;Laerm;56833;52.254;5.598;2023-04-25T00:05:22;41.46;40.27;42.39;;
66456;Laerm;56833;52.254;5.598;2023-04-25T00:05:33;41.48;40.53;42.77;;
66456;Laerm;56833;52.254;5.598;2023-04-25T00:05:44;41.50;40.37;42.69;;
66456;Laerm;56833;52.254;5.598;2023-04-25T00:05:55;41.51;40.48;42.54;;
66456;Laerm;56833;52.254;5.598;2023-04-25T00:06:06;41.47;40.43;42.38;;
66456;Laerm;56833;52.254;5.598;2023-04-25T00:06:17;41.51;40.57;42.50;;
66456;Laerm;56833;52.254;5.598;2023-04-25T00:06:28;41.46;40.50;42.31;;
66456;Laerm;56833;52.254;5.598;2023-04-25T00:06:39;41.47;40.60;42.48;;
66456;Laerm;56833;52.254;5.598;2023-04-25T00:06:50;41.49;40.55;42.85;;
66456;Laerm;56833;52.254;5.598;2023-04-25T00:07:00;41.48;40.35;42.77;;
66456;Laerm;56833;52.254;5.598;2023-04-25T00:07:13;41.52;40.41;42.38;;
66456;Laerm;56833;52.254;5.598;2023-04-25T00:07:24;41.48;40.36;42.62;;
66456;Laerm;56833;52.254;5.598;2023-04-25T00:07:35;41.50;40.56;42.68;;
66456;Laerm;56833;52.254;5.598;2023-04-25T00:07:45;41.51;40.21;42.38;;
66456;Laerm;56833;52.254;5.598;2023-04-25T00:07:55;41.46;40.25;42.51;;
66456;Laerm;56833;52.254;5.598;2023-04-25T00:08:07;41.47;40.59;42.52;;
66456;Laerm;56833;52.254;5.598;2023-04-25T00:08:17;41.44;40.57;42.51;;
66456;Laerm;56833;52.254;5.598;2023-04-25T00:08:28;41.47;40.52;42.51;;
66456;Laerm;56833;52.254;5.598;2023-04-25T00:08:38;41.47;40.30;42.45;;
66456;Laerm;56833;52.254;5.598;2023-04-25T00:08:49;41.44;40.36;42.45;;
66456;Laerm;56833;52.254;5.598;2023-04-25T00:08:59;41.42;40.42;42.32;;
66456;Laerm;56833;52.254;5.598;2023-04-25T00:09:09;41.45;40.54;42.53;;
66456;Laerm;56833;52.254;5.598;2023-04-25T00:09:21;41.44;40.60;42.40;;
66456;Laerm;56833;52.254;5.598;2023-04-25T00:09:32;41.47;40.59;42.36;;
66456;Laerm;56833;52.254;5.598;2023-04-25T00:09:42;41.43;40.41;42.54;;
66456;Laerm;56833;52.254;5.598;2023-04-25T00:09:52;41.45;40.45;42.64;;
66456;Laerm;56833;52.254;5.598;2023-04-25T00:10:03;41.46;40.37;42.27;;
66456;Laerm;56833;52.254;5.598;2023-04-25T00:10:13;41.46;40.43;42.64;;
66456;Laerm;56833;52.254;5.598;2023-04-25T00:10:23;41.48;40.41;42.55;;
66456;Laerm;56833;52.254;5.598;2023-04-25T00:10:33;41.47;40.43;42.45;;
66456;Laerm;56833;52.254;5.598;2023-04-25T00:10:44;41.49;40.58;42.61;;
66456;Laerm;56833;52.254;5.598;2023-04-25T00:10:54;41.46;40.37;42.58;;
66456;Laerm;56833;52.254;5.598;2023-04-25T00:11:04;41.42;40.52;42.36;;
66456;Laerm;56833;52.254;5.598;2023-04-25T00:11:15;41.47;40.51;42.41;;
66456;Laerm;56833;52.254;5.598;2023-04-25T00:11:25;41.44;40.62;42.47;;
66456;Laerm;56833;52.254;5.598;2023-04-25T00:11:35;41.42;40.36;42.34;;
66456;Laerm;56833;52.254;5.598;2023-04-25T00:11:46;41.47;40.57;42.56;;
66456;Laerm;56833;52.254;5.598;2023-04-25T00:11:56;41.44;40.59;42.58;;
66456;Laerm;56833;52.254;5.598;2023-04-25T00:12:07;41.43;40.39;42.61;;
66456;Laerm;56833;52.254;5.598;2023-04-25T00:12:17;41.45;40.40;42.75;;
66456;Laerm;56833;52.254;5.598;2023-04-25T00:12:27;41.42;40.38;42.49;;
66456;Laerm;56833;52.254;5.598;2023-04-25T00:12:40;41.41;40.31;42.52;;
66456;Laerm;56833;52.254;5.598;2023-04-25T00:12:51;41.44;40.55;42.46;;
66456;Laerm;56833;52.254;5.598;2023-04-25T00:13:02;41.42;40.37;42.41;;
66456;Laerm;56833;52.254;5.598;2023-04-25T00:13:12;41.44;40.55;42.43;;
66456;Laerm;56833;52.254;5.598;2023-04-25T00:13:23;41.42;40.21;42.46;;
66456;Laerm;56833;52.254;5.598;2023-04-25T00:13:35;41.45;40.40;42.69;;
66456;Laerm;56833;52.254;5.598;2023-04-25T00:13:45;41.43;40.49;42.71;;
66456;Laerm;56833;52.254;5.598;2023-04-25T00:13:56;41.47;40.46;42.40;;
66456;Laerm;56833;52.254;5.598;2023-04-25T00:14:07;41.49;40.29;42.44;;
66456;Laerm;56833;52.254;5.598;2023-04-25T00:14:17;41.42;40.38;42.28;;
66456;Laerm;56833;52.254;5.598;2023-04-25T00:14:28;41.45;40.48;42.35;;
66456;Laerm;56833;52.254;5.598;2023-04-25T00:14:38;41.45;40.56;42.53;;
66456;Laerm;56833;52.254;5.598;2023-04-25T00:14:49;41.43;40.34;42.37;;
66456;Laerm;56833;52.254;5.598;2023-04-25T00:15:03;41.46;40.13;42.32;;
66456;Laerm;56833;52.254;5.598;2023-04-25T00:15:13;41.41;40.12;42.46;;
66456;Laerm;56833;52.254;5.598;2023-04-25T00:15:23;41.40;40.23;42.33;;
66456;Laerm;56833;52.254;5.598;2023-04-25T00:15:34;41.46;40.31;42.39;;
66456;Laerm;56833;52.254;5.598;2023-04-25T00:15:46;41.40;40.34;42.24;;
66456;Laerm;56833;52.254;5.598;2023-04-25T00:15:56;41.40;40.67;42.46;;
66456;Laerm;56833;52.254;5.598;2023-04-25T00:16:06;41.42;40.52;42.56;;
66456;Laerm;56833;52.254;5.598;2023-04-25T00:16:16;41.43;40.64;42.67;;
66456;Laerm;56833;52.254;5.598;2023-04-25T00:16:27;41.43;40.38;42.27;;
66456;Laerm;56833;52.254;5.598;2023-04-25T00:16:38;41.41;40.25;42.46;;
66456;Laerm;56833;52.254;5.598;2023-04-25T00:16:51;41.45;40.26;42.40;;
66456;Laerm;56833;52.254;5.598;2023-04-25T00:17:02;41.39;40.13;42.52;;
66456;Laerm;56833;52.254;5.598;2023-04-25T00:17:15;41.46;40.27;42.35;;
66456;Laerm;56833;52.254;5.598;2023-04-25T00:17:26;41.47;40.46;42.70;;
66456;Laerm;56833;52.254;5.598;2023-04-25T00:17:37;41.45;40.54;42.27;;
66456;Laerm;56833;52.254;5.598;2023-04-25T00:17:48;41.43;40.30;42.54;;
66456;Laerm;56833;52.254;5.598;2023-04-25T00:17:58;41.45;40.39;42.47;;
66456;Laerm;56833;52.254;5.598;2023-04-25T00:18:08;41.44;40.54;42.32;;
66456;Laerm;56833;52.254;5.598;2023-04-25T00:18:19;41.48;40.59;42.60;;
66456;Laerm;56833;52.254;5.598;2023-04-25T00:18:30;41.42;40.14;42.47;;
66456;Laerm;56833;52.254;5.598;2023-04-25T00:18:41;41.40;40.46;42.26;;
66456;Laerm;56833;52.254;5.598;2023-04-25T00:18:51;41.45;40.68;42.42;;
66456;Laerm;56833;52.254;5.598;2023-04-25T00:19:03;41.45;40.40;42.40;;
66456;Laerm;56833;52.254;5.598;2023-04-25T00:19:14;41.45;40.20;42.45;;
66456;Laerm;56833;52.254;5.598;2023-04-25T00:19:24;41.42;40.53;42.53;;
66456;Laerm;56833;52.254;5.598;2023-04-25T00:19:34;41.46;40.48;42.70;;
66456;Laerm;56833;52.254;5.598;2023-04-25T00:19:44;41.47;40.45;42.50;;
66456;Laerm;56833;52.254;5.598;2023-04-25T00:19:56;41.38;40.04;42.45;;
66456;Laerm;56833;52.254;5.598;2023-04-25T00:20:08;41.43;40.50;42.48;;
66456;Laerm;56833;52.254;5.598;2023-04-25T00:20:19;41.44;40.48;42.17;;
66456;Laerm;56833;52.254;5.598;2023-04-25T00:20:29;41.41;40.50;42.42;;
66456;Laerm;56833;52.254;5.598;2023-04-25T00:20:40;41.44;40.42;42.49;;
66456;Laerm;56833;52.254;5.598;2023-04-25T00:20:50;41.48;40.57;42.58;;
66456;Laerm;56833;52.254;5.598;2023-04-25T00:21:00;41.45;40.32;42.50;;
66456;Laerm;56833;52.254;5.598;2023-04-25T00:21:10;41.47;40.14;42.65;;
66456;Laerm;56833;52.254;5.598;2023-04-25T00:21:21;41.44;40.43;42.26;;
66456;Laerm;56833;52.254;5.598;2023-04-25T00:21:32;41.50;40.49;42.49;;
66456;Laerm;56833;52.254;5.598;2023-04-25T00:21:42;41.43;40.50;42.33;;
66456;Laerm;56833;52.254;5.598;2023-04-25T00:21:56;41.45;40.36;42.40;;
66456;Laerm;56833;52.254;5.598;2023-04-25T00:22:06;41.45;40.59;42.39;;
66456;Laerm;56833;52.254;5.598;2023-04-25T00:22:17;41.46;40.24;42.53;;
66456;Laerm;56833;52.254;5.598;2023-04-25T00:22:27;41.44;40.31;42.41;;
66456;Laerm;56833;52.254;5.598;2023-04-25T00:22:37;41.45;40.29;42.88;;
66456;Laerm;56833;52.254;5.598;2023-04-25T00:22:47;41.44;40.63;42.23;;
66456;Laerm;56833;52.254;5.598;2023-04-25T00:22:58;41.45;40.27;42.57;;
66456;Laerm;56833;52.254;5.598;2023-04-25T00:23:08;41.44;40.22;42.42;;
66456;Laerm;56833;52.254;5.598;2023-04-25T00:23:18;41.45;40.37;42.46;;
66456;Laerm;56833;52.254;5.598;2023-04-25T00:23:29;41.42;40.37;42.31;;
66456;Laerm;56833;52.254;5.598;2023-04-25T00:23:39;41.45;40.38;42.50;;
66456;Laerm;56833;52.254;5.598;2023-04-25T00:23:49;41.48;40.29;42.41;;
66456;Laerm;56833;52.254;5.598;2023-04-25T00:24:00;41.46;40.27;42.45;;
66456;Laerm;56833;52.254;5.598;2023-04-25T00:24:10;41.46;40.39;42.54;;
66456;Laerm;56833;52.254;5.598;2023-04-25T00:24:20;41.49;40.58;42.60;;
66456;Laerm;56833;52.254;5.598;2023-04-25T00:24:31;41.42;40.24;42.76;;
66456;Laerm;56833;52.254;5.598;2023-04-25T00:24:41;41.45;40.54;42.62;;
66456;Laerm;56833;52.254;5.598;2023-04-25T00:24:51;41.44;40.54;42.26;;
66456;Laerm;56833;52.254;5.598;2023-04-25T00:25:04;41.47;40.48;42.57;;
66456;Laerm;56833;52.254;5.598;2023-04-25T00:25:14;41.48;40.39;42.45;;
66456;Laerm;56833;52.254;5.598;2023-04-25T00:25:25;41.43;40.37;42.38;;
66456;Laerm;56833;52.254;5.598;2023-04-25T00:25:35;41.49;40.50;42.40;;
66456;Laerm;56833;52.254;5.598;2023-04-25T00:25:45;41.46;40.52;42.44;;
66456;Laerm;56833;52.254;5.598;2023-04-25T00:25:56;41.48;40.31;42.56;;
66456;Laerm;56833;52.254;5.598;2023-04-25T00:26:06;41.48;40.36;42.36;;
66456;Laerm;56833;52.254;5.598;2023-04-25T00:26:16;41.48;40.25;42.47;;
66456;Laerm;56833;52.254;5.598;2023-04-25T00:26:27;41.46;40.18;42.67;;
66456;Laerm;56833;52.254;5.598;2023-04-25T00:26:37;41.46;40.42;42.60;;
66456;Laerm;56833;52.254;5.598;2023-04-25T00:26:47;41.48;40.36;42.54;;
66456;Laerm;56833;52.254;5.598;2023-04-25T00:26:57;41.48;40.49;42.61;;
66456;Laerm;56833;52.254;5.598;2023-04-25T00:27:08;41.49;40.57;42.41;;
66456;Laerm;56833;52.254;5.598;2023-04-25T00:27:18;41.49;40.34;42.63;;
66456;Laerm;56833;52.254;5.598;2023-04-25T00:27:28;41.45;40.59;42.56;;
66456;Laerm;56833;52.254;5.598;2023-04-25T00:27:39;41.50;40.65;42.39;;
66456;Laerm;56833;52.254;5.598;2023-04-25T00:27:49;41.49;40.55;42.52;;
66456;Laerm;56833;52.254;5.598;2023-04-25T00:27:59;41.52;40.48;42.48;;
66456;Laerm;56833;52.254;5.598;2023-04-25T00:28:10;41.50;40.48;42.56;;
66456;Laerm;56833;52.254;5.598;2023-04-25T00:28:21;41.51;40.45;42.68;;
66456;Laerm;56833;52.254;5.598;2023-04-25T00:28:31;41.47;40.55;42.68;;
66456;Laerm;56833;52.254;5.598;2023-04-25T00:28:41;41.48;40.33;42.30;;
66456;Laerm;56833;52.254;5.598;2023-04-25T00:28:52;41.47;40.64;42.26;;
66456;Laerm;56833;52.254;5.598;2023-04-25T00:29:02;41.46;40.43;42.85;;
66456;Laerm;56833;52.254;5.598;2023-04-25T00:29:12;41.49;40.50;42.35;;
66456;Laerm;56833;52.254;5.598;2023-04-25T00:29:22;41.55;40.31;42.60;;
66456;Laerm;56833;52.254;5.598;2023-04-25T00:29:33;41.48;40.27;42.33;;
66456;Laerm;56833;52.254;5.598;2023-04-25T00:29:43;41.52;40.59;42.74;;
66456;Laerm;56833;52.254;5.598;2023-04-25T00:29:53;41.47;40.63;42.42;;
66456;Laerm;56833;52.254;5.598;2023-04-25T00:30:04;41.52;40.64;42.57;;
66456;Laerm;56833;52.254;5.598;2023-04-25T00:30:14;41.43;40.22;42.28;;
66456;Laerm;56833;52.254;5.598;2023-04-25T00:30:24;41.47;40.44;42.69;;
66456;Laerm;56833;52.254;5.598;2023-04-25T00:30:34;41.49;40.60;42.48;;
66456;Laerm;56833;52.254;5.598;2023-04-25T00:30:45;41.49;40.45;42.53;;
66456;Laerm;56833;52.254;5.598;2023-04-25T00:30:55;41.48;40.34;42.59;;
66456;Laerm;56833;52.254;5.598;2023-04-25T00:31:05;41.49;40.62;42.45;;
66456;Laerm;56833;52.254;5.598;2023-04-25T00:31:16;41.49;40.38;42.54;;
66456;Laerm;56833;52.254;5.598;2023-04-25T00:31:26;41.51;40.49;42.59;;
66456;Laerm;56833;52.254;5.598;2023-04-25T00:31:36;41.49;40.50;42.51;;
66456;Laerm;56833;52.254;5.598;2023-04-25T00:31:46;41.49;40.38;42.41;;
66456;Laerm;56833;52.254;5.598;2023-04-25T00:31:56;41.48;40.22;42.61;;
66456;Laerm;56833;52.254;5.598;2023-04-25T00:32:07;41.46;40.02;42.32;;
66456;Laerm;56833;52.254;5.598;2023-04-25T00:32:17;41.48;40.09;42.73;;
66456;Laerm;56833;52.254;5.598;2023-04-25T00:32:27;41.46;40.24;42.67;;
66456;Laerm;56833;52.254;5.598;2023-04-25T00:32:38;41.46;40.32;42.50;;
66456;Laerm;56833;52.254;5.598;2023-04-25T00:32:48;41.46;40.37;42.62;;
66456;Laerm;56833;52.254;5.598;2023-04-25T00:32:58;41.49;40.53;42.57;;
66456;Laerm;56833;52.254;5.598;2023-04-25T00:33:09;41.41;40.47;42.41;;
66456;Laerm;56833;52.254;5.598;2023-04-25T00:33:19;41.43;40.11;42.18;;
66456;Laerm;56833;52.254;5.598;2023-04-25T00:33:30;41.44;40.30;42.34;;
66456;Laerm;56833;52.254;5.598;2023-04-25T00:33:40;41.47;40.54;42.42;;
66456;Laerm;56833;52.254;5.598;2023-04-25T00:33:50;41.43;40.45;42.55;;
66456;Laerm;56833;52.254;5.598;2023-04-25T00:34:00;41.50;40.34;42.38;;
66456;Laerm;56833;52.254;5.598;2023-04-25T00:34:11;41.46;40.57;42.34;;
66456;Laerm;56833;52.254;5.598;2023-04-25T00:34:21;41.46;40.54;42.57;;
66456;Laerm;56833;52.254;5.598;2023-04-25T00:34:31;41.44;40.36;42.36;;
66456;Laerm;56833;52.254;5.598;2023-04-25T00:34:41;41.48;40.18;42.40;;
66456;Laerm;56833;52.254;5.598;2023-04-25T00:34:52;41.49;40.51;42.75;;
66456;Laerm;56833;52.254;5.598;2023-04-25T00:35:02;41.46;40.34;42.60;;
66456;Laerm;56833;52.254;5.598;2023-04-25T00:35:12;41.46;40.41;42.50;;
66456;Laerm;56833;52.254;5.598;2023-04-25T00:35:23;41.47;40.48;42.58;;
66456;Laerm;56833;52.254;5.598;2023-04-25T00:35:33;41.45;40.50;42.24;;
66456;Laerm;56833;52.254;5.598;2023-04-25T00:35:44;41.42;40.39;42.52;;
66456;Laerm;56833;52.254;5.598;2023-04-25T00:35:54;41.46;40.11;42.37;;
66456;Laerm;56833;52.254;5.598;2023-04-25T00:36:05;41.45;40.44;42.38;;
66456;Laerm;56833;52.254;5.598;2023-04-25T00:36:16;41.43;40.27;42.37;;
66456;Laerm;56833;52.254;5.598;2023-04-25T00:36:27;41.48;40.43;42.59;;
66456;Laerm;56833;52.254;5.598;2023-04-25T00:36:37;41.43;40.41;42.47;;
66456;Laerm;56833;52.254;5.598;2023-04-25T00:36:48;41.44;40.72;42.67;;
66456;Laerm;56833;52.254;5.598;2023-04-25T00:36:58;41.41;40.46;42.42;;
66456;Laerm;56833;52.254;5.598;2023-04-25T00:37:11;41.46;40.32;42.61;;
66456;Laerm;56833;52.254;5.598;2023-04-25T00:37:22;41.45;40.48;42.38;;
66456;Laerm;56833;52.254;5.598;2023-04-25T00:37:32;41.45;40.53;42.49;;
66456;Laerm;56833;52.254;5.598;2023-04-25T00:37:43;41.43;40.49;42.52;;
66456;Laerm;56833;52.254;5.598;2023-04-25T00:37:53;41.43;40.29;42.60;;
66456;Laerm;56833;52.254;5.598;2023-04-25T00:38:04;41.45;40.43;42.46;;
66456;Laerm;56833;52.254;5.598;2023-04-25T00:38:15;41.44;40.34;42.64;;
66456;Laerm;56833;52.254;5.598;2023-04-25T00:38:25;41.47;40.20;42.66;;
66456;Laerm;56833;52.254;5.598;2023-04-25T00:38:35;41.43;40.20;42.54;;
66456;Laerm;56833;52.254;5.598;2023-04-25T00:38:46;41.43;40.39;42.53;;
66456;Laerm;56833;52.254;5.598;2023-04-25T00:38:56;41.45;40.42;42.42;;
66456;Laerm;56833;52.254;5.598;2023-04-25T00:39:06;41.43;40.41;42.28;;
66456;Laerm;56833;52.254;5.598;2023-04-25T00:39:16;41.42;40.10;42.44;;
66456;Laerm;56833;52.254;5.598;2023-04-25T00:39:27;41.43;40.44;42.37;;
66456;Laerm;56833;52.254;5.598;2023-04-25T00:39:37;41.45;40.55;42.41;;
66456;Laerm;56833;52.254;5.598;2023-04-25T00:39:47;41.40;40.38;42.34;;
66456;Laerm;56833;52.254;5.598;2023-04-25T00:39:57;41.43;40.36;42.46;;
66456;Laerm;56833;52.254;5.598;2023-04-25T00:40:08;41.40;40.43;42.84;;
66456;Laerm;56833;52.254;5.598;2023-04-25T00:40:18;41.44;40.63;42.39;;
66456;Laerm;56833;52.254;5.598;2023-04-25T00:40:28;41.44;40.53;42.45;;
66456;Laerm;56833;52.254;5.598;2023-04-25T00:40:39;41.41;40.29;42.55;;
66456;Laerm;56833;52.254;5.598;2023-04-25T00:40:49;41.41;40.38;42.66;;
66456;Laerm;56833;52.254;5.598;2023-04-25T00:40:59;41.42;40.53;42.49;;
66456;Laerm;56833;52.254;5.598;2023-04-25T00:41:10;41.40;40.24;42.66;;
66456;Laerm;56833;52.254;5.598;2023-04-25T00:41:20;41.39;39.92;42.59;;
66456;Laerm;56833;52.254;5.598;2023-04-25T00:41:30;41.40;40.11;42.35;;
66456;Laerm;56833;52.254;5.598;2023-04-25T00:41:41;41.42;40.36;42.43;;
66456;Laerm;56833;52.254;5.598;2023-04-25T00:41:51;41.43;40.57;42.38;;
66456;Laerm;56833;52.254;5.598;2023-04-25T00:42:04;41.44;40.34;42.35;;
66456;Laerm;56833;52.254;5.598;2023-04-25T00:42:15;41.41;40.22;42.35;;
66456;Laerm;56833;52.254;5.598;2023-04-25T00:42:25;41.45;40.09;42.31;;
66456;Laerm;56833;52.254;5.598;2023-04-25T00:42:37;41.41;40.50;42.50;;
66456;Laerm;56833;52.254;5.598;2023-04-25T00:42:47;41.41;40.13;42.30;;
66456;Laerm;56833;52.254;5.598;2023-04-25T00:42:59;41.38;40.34;42.59;;
66456;Laerm;56833;52.254;5.598;2023-04-25T00:43:09;41.39;40.22;42.17;;
66456;Laerm;56833;52.254;5.598;2023-04-25T00:43:19;41.39;40.19;42.27;;
66456;Laerm;56833;52.254;5.598;2023-04-25T00:43:30;41.38;40.20;42.30;;
66456;Laerm;56833;52.254;5.598;2023-04-25T00:43:40;41.37;40.46;42.53;;
66456;Laerm;56833;52.254;5.598;2023-04-25T00:43:51;41.41;40.19;42.36;;
66456;Laerm;56833;52.254;5.598;2023-04-25T00:44:03;41.41;40.50;42.37;;
66456;Laerm;56833;52.254;5.598;2023-04-25T00:44:14;41.41;40.38;42.53;;
66456;Laerm;56833;52.254;5.598;2023-04-25T00:44:26;41.39;40.37;42.56;;
66456;Laerm;56833;52.254;5.598;2023-04-25T00:44:37;41.40;40.38;42.46;;
66456;Laerm;56833;52.254;5.598;2023-04-25T00:44:48;41.46;40.45;42.48;;
66456;Laerm;56833;52.254;5.598;2023-04-25T00:44:59;41.40;40.39;42.37;;
66456;Laerm;56833;52.254;5.598;2023-04-25T00:45:09;41.41;40.55;42.56;;
66456;Laerm;56833;52.254;5.598;2023-04-25T00:45:22;41.39;40.27;42.50;;
66456;Laerm;56833;52.254;5.598;2023-04-25T00:45:36;41.43;40.42;42.61;;
66456;Laerm;56833;52.254;5.598;2023-04-25T00:45:47;41.40;40.39;42.43;;
66456;Laerm;56833;52.254;5.598;2023-04-25T00:45:59;41.37;40.39;42.34;;
66456;Laerm;56833;52.254;5.598;2023-04-25T00:46:10;41.46;40.30;42.51;;
66456;Laerm;56833;52.254;5.598;2023-04-25T00:46:20;41.43;40.37;42.39;;
66456;Laerm;56833;52.254;5.598;2023-04-25T00:46:30;41.39;40.31;42.24;;
66456;Laerm;56833;52.254;5.598;2023-04-25T00:46:41;41.41;40.40;42.42;;
66456;Laerm;56833;52.254;5.598;2023-04-25T00:46:52;41.42;40.24;42.52;;
66456;Laerm;56833;52.254;5.598;2023-04-25T00:47:03;41.38;39.99;42.75;;
66456;Laerm;56833;52.254;5.598;2023-04-25T00:47:14;41.38;40.35;42.56;;
66456;Laerm;56833;52.254;5.598;2023-04-25T00:47:25;41.42;40.11;42.71;;
66456;Laerm;56833;52.254;5.598;2023-04-25T00:47:35;41.40;40.36;42.42;;
66456;Laerm;56833;52.254;5.598;2023-04-25T00:47:46;41.38;40.26;42.39;;
66456;Laerm;56833;52.254;5.598;2023-04-25T00:47:57;41.42;40.37;42.62;;
66456;Laerm;56833;52.254;5.598;2023-04-25T00:48:07;41.37;40.39;42.25;;
66456;Laerm;56833;52.254;5.598;2023-04-25T00:48:17;41.40;40.42;42.41;;
66456;Laerm;56833;52.254;5.598;2023-04-25T00:48:28;41.40;40.26;42.34;;
66456;Laerm;56833;52.254;5.598;2023-04-25T00:48:38;41.43;40.55;42.37;;
66456;Laerm;56833;52.254;5.598;2023-04-25T00:48:48;41.40;40.38;42.32;;
66456;Laerm;56833;52.254;5.598;2023-04-25T00:48:58;41.38;40.25;42.28;;
66456;Laerm;56833;52.254;5.598;2023-04-25T00:49:09;41.38;40.45;42.28;;
66456;Laerm;56833;52.254;5.598;2023-04-25T00:49:25;41.40;40.29;42.54;;
66456;Laerm;56833;52.254;5.598;2023-04-25T00:49:35;41.40;40.10;42.60;;
66456;Laerm;56833;52.254;5.598;2023-04-25T00:49:45;41.37;40.32;42.39;;
66456;Laerm;56833;52.254;5.598;2023-04-25T00:49:56;41.40;40.43;42.44;;
66456;Laerm;56833;52.254;5.598;2023-04-25T00:50:06;41.39;40.65;42.28;;
66456;Laerm;56833;52.254;5.598;2023-04-25T00:50:16;41.38;40.05;42.37;;
66456;Laerm;56833;52.254;5.598;2023-04-25T00:50:27;41.40;40.43;42.21;;
66456;Laerm;56833;52.254;5.598;2023-04-25T00:50:37;41.36;40.46;42.45;;
66456;Laerm;56833;52.254;5.598;2023-04-25T00:50:54;41.38;40.41;42.26;;
66456;Laerm;56833;52.254;5.598;2023-04-25T00:51:05;41.39;40.38;42.33;;
66456;Laerm;56833;52.254;5.598;2023-04-25T00:51:20;41.43;40.61;42.37;;
66456;Laerm;56833;52.254;5.598;2023-04-25T00:51:31;41.39;40.18;42.57;;
66456;Laerm;56833;52.254;5.598;2023-04-25T00:51:43;41.39;40.00;42.45;;
66456;Laerm;56833;52.254;5.598;2023-04-25T00:51:55;41.38;40.23;42.59;;
66456;Laerm;56833;52.254;5.598;2023-04-25T00:52:06;41.38;40.42;42.50;;
66456;Laerm;56833;52.254;5.598;2023-04-25T00:52:16;41.35;40.26;42.28;;
66456;Laerm;56833;52.254;5.598;2023-04-25T00:52:27;41.35;40.46;42.44;;
66456;Laerm;56833;52.254;5.598;2023-04-25T00:52:37;41.34;40.45;42.36;;
66456;Laerm;56833;52.254;5.598;2023-04-25T00:52:48;41.33;40.51;42.20;;
66456;Laerm;56833;52.254;5.598;2023-04-25T00:52:58;41.38;40.37;42.39;;
66456;Laerm;56833;52.254;5.598;2023-04-25T00:53:09;41.38;40.34;42.42;;
66456;Laerm;56833;52.254;5.598;2023-04-25T00:53:20;41.39;40.29;42.32;;
66456;Laerm;56833;52.254;5.598;2023-04-25T00:53:31;41.38;40.34;42.63;;
66456;Laerm;56833;52.254;5.598;2023-04-25T00:53:42;41.34;40.37;42.27;;
66456;Laerm;56833;52.254;5.598;2023-04-25T00:53:52;41.36;40.37;42.45;;
66456;Laerm;56833;52.254;5.598;2023-04-25T00:54:03;41.35;40.40;42.61;;
66456;Laerm;56833;52.254;5.598;2023-04-25T00:54:13;41.40;40.31;42.29;;
66456;Laerm;56833;52.254;5.598;2023-04-25T00:54:24;41.40;40.37;42.45;;
66456;Laerm;56833;52.254;5.598;2023-04-25T00:54:34;41.43;40.49;42.55;;
66456;Laerm;56833;52.254;5.598;2023-04-25T00:54:44;41.35;40.39;42.85;;
66456;Laerm;56833;52.254;5.598;2023-04-25T00:54:55;41.39;40.43;42.28;;
66456;Laerm;56833;52.254;5.598;2023-04-25T00:55:05;41.37;40.64;42.42;;
66456;Laerm;56833;52.254;5.598;2023-04-25T00:55:16;41.42;40.53;42.31;;
66456;Laerm;56833;52.254;5.598;2023-04-25T00:55:26;41.41;40.49;42.27;;
66456;Laerm;56833;52.254;5.598;2023-04-25T00:55:37;41.38;40.03;42.26;;
66456;Laerm;56833;52.254;5.598;2023-04-25T00:55:47;41.37;40.28;42.41;;
66456;Laerm;56833;52.254;5.598;2023-04-25T00:55:58;41.36;40.30;42.21;;
66456;Laerm;56833;52.254;5.598;2023-04-25T00:56:08;41.39;40.25;42.31;;
66456;Laerm;56833;52.254;5.598;2023-04-25T00:56:18;41.36;40.28;42.41;;
66456;Laerm;56833;52.254;5.598;2023-04-25T00:56:29;41.41;40.44;42.42;;
66456;Laerm;56833;52.254;5.598;2023-04-25T00:56:40;41.39;40.09;42.51;;
66456;Laerm;56833;52.254;5.598;2023-04-25T00:56:50;41.45;40.31;42.30;;
66456;Laerm;56833;52.254;5.598;2023-04-25T00:57:01;41.40;40.38;42.34;;
66456;Laerm;56833;52.254;5.598;2023-04-25T00:57:11;41.36;40.48;42.31;;
66456;Laerm;56833;52.254;5.598;2023-04-25T00:57:21;41.39;40.41;42.45;;
66456;Laerm;56833;52.254;5.598;2023-04-25T00:57:31;41.39;40.29;42.36;;
66456;Laerm;56833;52.254;5.598;2023-04-25T00:57:42;41.36;40.38;42.33;;
66456;Laerm;56833;52.254;5.598;2023-04-25T00:57:52;41.39;40.34;42.66;;
66456;Laerm;56833;52.254;5.598;2023-04-25T00:58:02;41.38;40.07;42.74;;
66456;Laerm;56833;52.254;5.598;2023-04-25T00:58:13;41.37;40.44;42.34;;
66456;Laerm;56833;52.254;5.598;2023-04-25T00:58:24;41.37;40.53;42.51;;
66456;Laerm;56833;52.254;5.598;2023-04-25T00:58:34;41.38;40.15;42.29;;
66456;Laerm;56833;52.254;5.598;2023-04-25T00:58:44;41.41;40.44;42.68;;
66456;Laerm;56833;52.254;5.598;2023-04-25T00:58:55;41.39;40.26;42.39;;
66456;Laerm;56833;52.254;5.598;2023-04-25T00:59:06;41.38;40.06;42.58;;
66456;Laerm;56833;52.254;5.598;2023-04-25T00:59:17;41.36;40.08;42.30;;
66456;Laerm;56833;52.254;5.598;2023-04-25T00:59:29;41.41;40.39;42.52;;
66456;Laerm;56833;52.254;5.598;2023-04-25T00:59:40;41.38;40.37;42.70;;